首页
METAR-TAF:

METAR-TAF

机场 :

伊利, 宾夕法尼亚州, 美国

纬度: 42-04-48N, 经度: 080-10-57W, 海拔: 223米

当前天气观测

该预报发布于35分钟前的20:51 UTC
风速10节,风向西
温度 24°C
湿度 34%
气压 1014 hPa
能見度: 16.1公里
天空无云

METAR: KERI 062051Z AUTO 27010KT 10SM CLR 24/07 A2994 RMK AO2 SLP135 T02440072 58005

时间: 17:26 (21:26 UTC)

预报

该预报发布于4小时和3分钟前的17:23 UTC
预报有效从06日的 18点(UTC)到 07日的 18点(UTC)
风速10节,风向西北
能見度: 10公里
少量云层高于6000英尺
从 07日的 0400点(UTC)
风速5节,风向
能見度: 10公里
散云层高于3500英尺

TAF: KERI 061723Z 0618/0718 32010KT P6SM FEW060 FM070400 01005KT P6SM SCT035

超过4000个机场的气象观测和天气预报(METAR&TAF报告)。

可查询的气象台以黄色和红色小点在地图上表示。

将鼠标移到小点上方,可查看气象台名称。

然后点击查看天气观测和预报。

如需切换地图:点击带黑十字的绿色按钮放大地图;点击带横线的绿色按钮缩小地图;或者点击绿色箭头查看邻近地区的地图。


METAR-TAF: